sensor_id;sensor_type;location;lat;lon;timestamp;pressure;altitude;pressure_sealevel;temperature;humidity
74631;BME280;63138;55.082;38.804;2022-09-09T00:03:54;100489.72;;;5.25;84.33
74631;BME280;63138;55.082;38.804;2022-09-09T00:06:32;100481.44;;;5.16;83.50
74631;BME280;63138;55.082;38.804;2022-09-09T00:09:12;100481.09;;;5.10;84.35
74631;BME280;63138;55.082;38.804;2022-09-09T00:11:50;100492.34;;;5.15;84.06
74631;BME280;63138;55.082;38.804;2022-09-09T00:14:23;100488.06;;;5.12;84.11
74631;BME280;63138;55.082;38.804;2022-09-09T00:16:55;100492.72;;;5.10;83.94
74631;BME280;63138;55.082;38.804;2022-09-09T00:27:25;100510.38;;;5.03;84.93
74631;BME280;63138;55.082;38.804;2022-09-09T00:29:58;100498.16;;;4.99;84.72
74631;BME280;63138;55.082;38.804;2022-09-09T00:32:29;100499.38;;;4.95;84.53
74631;BME280;63138;55.082;38.804;2022-09-09T00:35:03;100510.72;;;4.98;84.60
74631;BME280;63138;55.082;38.804;2022-09-09T00:37:31;100515.50;;;4.95;85.20
74631;BME280;63138;55.082;38.804;2022-09-09T00:40:01;100516.38;;;4.95;84.53
74631;BME280;63138;55.082;38.804;2022-09-09T00:42:43;100519.09;;;4.95;84.61
74631;BME280;63138;55.082;38.804;2022-09-09T00:48:10;100501.72;;;4.88;84.74
74631;BME280;63138;55.082;38.804;2022-09-09T00:50:46;100520.16;;;4.93;85.09
74631;BME280;63138;55.082;38.804;2022-09-09T00:53:24;100520.28;;;4.91;84.78
74631;BME280;63138;55.082;38.804;2022-09-09T00:56:00;100526.56;;;4.92;85.00
74631;BME280;63138;55.082;38.804;2022-09-09T00:58:30;100530.09;;;4.92;84.95
74631;BME280;63138;55.082;38.804;2022-09-09T01:03:37;100529.25;;;4.92;84.74
74631;BME280;63138;55.082;38.804;2022-09-09T01:06:13;100523.75;;;4.93;84.70
74631;BME280;63138;55.082;38.804;2022-09-09T01:09:02;100539.88;;;4.93;84.79
74631;BME280;63138;55.082;38.804;2022-09-09T01:22:36;100534.25;;;4.85;84.93
74631;BME280;63138;55.082;38.804;2022-09-09T01:28:08;100544.50;;;4.91;84.38
74631;BME280;63138;55.082;38.804;2022-09-09T01:30:39;100558.13;;;4.90;84.76
74631;BME280;63138;55.082;38.804;2022-09-09T01:33:13;100549.16;;;4.89;84.89
74631;BME280;63138;55.082;38.804;2022-09-09T01:35:50;100559.81;;;4.91;84.96
74631;BME280;63138;55.082;38.804;2022-09-09T01:38:22;100557.13;;;4.91;84.99
74631;BME280;63138;55.082;38.804;2022-09-09T01:40:51;100568.75;;;4.91;85.02
74631;BME280;63138;55.082;38.804;2022-09-09T01:43:21;100559.94;;;4.89;84.82
74631;BME280;63138;55.082;38.804;2022-09-09T01:45:51;100559.94;;;4.89;84.81
74631;BME280;63138;55.082;38.804;2022-09-09T01:48:18;100566.19;;;4.90;84.87
74631;BME280;63138;55.082;38.804;2022-09-09T01:50:51;100568.88;;;4.90;85.37
74631;BME280;63138;55.082;38.804;2022-09-09T01:53:18;100559.34;;;4.86;85.03
74631;BME280;63138;55.082;38.804;2022-09-09T01:58:32;100577.69;;;4.92;84.66
74631;BME280;63138;55.082;38.804;2022-09-09T02:01:11;100575.84;;;4.92;84.91
74631;BME280;63138;55.082;38.804;2022-09-09T02:03:41;100573.28;;;4.91;84.88
74631;BME280;63138;55.082;38.804;2022-09-09T02:08:47;100573.28;;;4.91;85.00
74631;BME280;63138;55.082;38.804;2022-09-09T02:11:18;100574.41;;;4.88;84.74
74631;BME280;63138;55.082;38.804;2022-09-09T02:13:53;100578.53;;;4.92;84.86
74631;BME280;63138;55.082;38.804;2022-09-09T02:19:09;100573.28;;;4.91;84.86
74631;BME280;63138;55.082;38.804;2022-09-09T02:21:55;100584.88;;;4.91;84.97
74631;BME280;63138;55.082;38.804;2022-09-09T02:24:23;100583.06;;;4.92;85.01
74631;BME280;63138;55.082;38.804;2022-09-09T02:27:03;100584.16;;;4.89;84.27
74631;BME280;63138;55.082;38.804;2022-09-09T02:29:34;100583.44;;;4.87;84.54
74631;BME280;63138;55.082;38.804;2022-09-09T02:32:05;100585.75;;;4.92;84.94
74631;BME280;63138;55.082;38.804;2022-09-09T02:34:36;100586.00;;;4.89;84.81
74631;BME280;63138;55.082;38.804;2022-09-09T02:37:08;100591.03;;;4.93;84.35
74631;BME280;63138;55.082;38.804;2022-09-09T02:39:36;100581.59;;;4.88;84.25
74631;BME280;63138;55.082;38.804;2022-09-09T02:42:04;100601.91;;;4.92;84.44
74631;BME280;63138;55.082;38.804;2022-09-09T02:44:31;100599.09;;;4.93;84.55
74631;BME280;63138;55.082;38.804;2022-09-09T02:52:15;100617.19;;;4.91;84.66
74631;BME280;63138;55.082;38.804;2022-09-09T02:54:44;100603.13;;;4.88;84.34
74631;BME280;63138;55.082;38.804;2022-09-09T02:57:23;100611.34;;;4.86;84.54
74631;BME280;63138;55.082;38.804;2022-09-09T02:59:51;100614.50;;;4.91;84.68
74631;BME280;63138;55.082;38.804;2022-09-09T03:02:20;100611.06;;;4.89;84.60
74631;BME280;63138;55.082;38.804;2022-09-09T03:04:51;100616.56;;;4.88;85.23
74631;BME280;63138;55.082;38.804;2022-09-09T03:07:18;100621.72;;;4.91;84.86
74631;BME280;63138;55.082;38.804;2022-09-09T03:09:45;100606.94;;;4.85;84.60
74631;BME280;63138;55.082;38.804;2022-09-09T03:12:11;100613.16;;;4.86;84.78
74631;BME280;63138;55.082;38.804;2022-09-09T03:14:38;100630.63;;;4.91;84.79
74631;BME280;63138;55.082;38.804;2022-09-09T03:17:05;100619.75;;;4.93;84.67
74631;BME280;63138;55.082;38.804;2022-09-09T03:19:36;100638.47;;;4.94;84.79
74631;BME280;63138;55.082;38.804;2022-09-09T03:22:04;100634.94;;;4.94;85.31
74631;BME280;63138;55.082;38.804;2022-09-09T03:24:32;100636.63;;;4.95;84.94
74631;BME280;63138;55.082;38.804;2022-09-09T03:26:57;100633.81;;;4.96;84.61
74631;BME280;63138;55.082;38.804;2022-09-09T03:29:23;100638.13;;;4.99;84.61
74631;BME280;63138;55.082;38.804;2022-09-09T03:31:53;100641.41;;;5.03;84.77
74631;BME280;63138;55.082;38.804;2022-09-09T03:34:19;100644.84;;;5.05;84.66
74631;BME280;63138;55.082;38.804;2022-09-09T03:36:45;100650.84;;;5.08;84.48
74631;BME280;63138;55.082;38.804;2022-09-09T03:39:11;100656.09;;;5.10;84.44
74631;BME280;63138;55.082;38.804;2022-09-09T03:41:40;100642.88;;;5.07;84.84
74631;BME280;63138;55.082;38.804;2022-09-09T03:44:06;100657.44;;;5.15;84.47
74631;BME280;63138;55.082;38.804;2022-09-09T03:46:37;100666.84;;;5.21;83.99
74631;BME280;63138;55.082;38.804;2022-09-09T03:49:03;100669.19;;;5.26;83.78
74631;BME280;63138;55.082;38.804;2022-09-09T03:51:31;100666.09;;;5.30;83.46
74631;BME280;63138;55.082;38.804;2022-09-09T03:53:57;100665.84;;;5.33;82.93
74631;BME280;63138;55.082;38.804;2022-09-09T03:56:25;100670.97;;;5.36;82.26
74631;BME280;63138;55.082;38.804;2022-09-09T03:58:51;100670.84;;;5.38;81.99
74631;BME280;63138;55.082;38.804;2022-09-09T04:01:17;100675.50;;;5.36;82.29
74631;BME280;63138;55.082;38.804;2022-09-09T04:03:44;100681.75;;;5.36;82.03
74631;BME280;63138;55.082;38.804;2022-09-09T04:06:11;100680.53;;;5.29;82.76
74631;BME280;63138;55.082;38.804;2022-09-09T04:08:40;100680.41;;;5.31;82.75
74631;BME280;63138;55.082;38.804;2022-09-09T04:11:07;100689.47;;;5.30;82.43
74631;BME280;63138;55.082;38.804;2022-09-09T04:13:35;100693.03;;;5.30;82.37
74631;BME280;63138;55.082;38.804;2022-09-09T04:16:03;100695.47;;;5.33;81.68
74631;BME280;63138;55.082;38.804;2022-09-09T04:18:30;100692.78;;;5.33;82.02
74631;BME280;63138;55.082;38.804;2022-09-09T04:20:56;100686.78;;;5.30;81.58
74631;BME280;63138;55.082;38.804;2022-09-09T04:23:26;100697.06;;;5.36;81.29
74631;BME280;63138;55.082;38.804;2022-09-09T04:25:58;100695.47;;;5.33;81.62
74631;BME280;63138;55.082;38.804;2022-09-09T04:28:29;100696.19;;;5.35;81.76
74631;BME280;63138;55.082;38.804;2022-09-09T04:31:08;100697.53;;;5.41;81.45
74631;BME280;63138;55.082;38.804;2022-09-09T04:33:35;100694.47;;;5.46;80.84
74631;BME280;63138;55.082;38.804;2022-09-09T04:36:01;100681.50;;;5.40;80.36
74631;BME280;63138;55.082;38.804;2022-09-09T04:38:28;100689.09;;;5.46;80.64
74631;BME280;63138;55.082;38.804;2022-09-09T04:40:54;100709.16;;;5.53;80.31
74631;BME280;63138;55.082;38.804;2022-09-09T04:43:21;100706.69;;;5.61;80.30
74631;BME280;63138;55.082;38.804;2022-09-09T04:45:48;100700.19;;;5.64;80.16
74631;BME280;63138;55.082;38.804;2022-09-09T04:48:15;100710.22;;;5.73;79.93
74631;BME280;63138;55.082;38.804;2022-09-09T04:50:43;100702.50;;;5.68;80.04
74631;BME280;63138;55.082;38.804;2022-09-09T04:53:11;100707.22;;;5.87;79.63
74631;BME280;63138;55.082;38.804;2022-09-09T04:55:38;100706.50;;;5.97;79.02
74631;BME280;63138;55.082;38.804;2022-09-09T04:58:05;100706.31;;;6.09;78.92
74631;BME280;63138;55.082;38.804;2022-09-09T05:00:33;100713.56;;;6.09;78.82
74631;BME280;63138;55.082;38.804;2022-09-09T05:03:05;100721.59;;;6.20;78.08
74631;BME280;63138;55.082;38.804;2022-09-09T05:05:39;100710.41;;;6.25;77.44
74631;BME280;63138;55.082;38.804;2022-09-09T05:08:07;100726.31;;;6.28;77.67
74631;BME280;63138;55.082;38.804;2022-09-09T05:10:37;100716.41;;;6.28;77.19
74631;BME280;63138;55.082;38.804;2022-09-09T05:13:04;100725.53;;;6.37;77.25
74631;BME280;63138;55.082;38.804;2022-09-09T05:15:31;100714.38;;;6.42;77.13
74631;BME280;63138;55.082;38.804;2022-09-09T05:18:00;100721.63;;;6.41;76.89
74631;BME280;63138;55.082;38.804;2022-09-09T05:20:29;100728.69;;;6.42;77.20
74631;BME280;63138;55.082;38.804;2022-09-09T05:22:56;100727.50;;;6.35;77.16
74631;BME280;63138;55.082;38.804;2022-09-09T05:25:24;100728.31;;;6.47;76.94
74631;BME280;63138;55.082;38.804;2022-09-09T05:27:53;100733.59;;;6.48;77.35
74631;BME280;63138;55.082;38.804;2022-09-09T05:30:19;100737.00;;;6.50;76.29
74631;BME280;63138;55.082;38.804;2022-09-09T05:32:45;100733.91;;;6.55;76.68
74631;BME280;63138;55.082;38.804;2022-09-09T05:35:13;100734.78;;;6.56;76.59
74631;BME280;63138;55.082;38.804;2022-09-09T05:37:39;100734.25;;;6.62;76.81
74631;BME280;63138;55.082;38.804;2022-09-09T05:40:05;100731.75;;;6.70;76.63
74631;BME280;63138;55.082;38.804;2022-09-09T05:42:31;100738.59;;;6.74;75.99
74631;BME280;63138;55.082;38.804;2022-09-09T05:44:58;100733.69;;;6.89;75.98
74631;BME280;63138;55.082;38.804;2022-09-09T05:47:24;100736.72;;;6.96;75.00
74631;BME280;63138;55.082;38.804;2022-09-09T05:49:54;100734.47;;;7.01;73.45
74631;BME280;63138;55.082;38.804;2022-09-09T05:52:20;100744.34;;;7.52;73.29
74631;BME280;63138;55.082;38.804;2022-09-09T05:54:46;100744.31;;;8.80;68.34
74631;BME280;63138;55.082;38.804;2022-09-09T05:57:12;100745.41;;;9.90;64.39
74631;BME280;63138;55.082;38.804;2022-09-09T05:59:37;100736.66;;;10.68;60.88
74631;BME280;63138;55.082;38.804;2022-09-09T06:02:04;100744.88;;;11.03;57.82
74631;BME280;63138;55.082;38.804;2022-09-09T06:04:34;100722.00;;;11.91;55.14
74631;BME280;63138;55.082;38.804;2022-09-09T06:07:01;100736.38;;;12.34;53.92
74631;BME280;63138;55.082;38.804;2022-09-09T06:09:27;100745.91;;;12.79;50.98
74631;BME280;63138;55.082;38.804;2022-09-09T06:11:53;100756.56;;;13.77;49.95
74631;BME280;63138;55.082;38.804;2022-09-09T06:14:21;100744.75;;;14.63;47.50
74631;BME280;63138;55.082;38.804;2022-09-09T06:16:48;100743.28;;;14.52;46.79
74631;BME280;63138;55.082;38.804;2022-09-09T06:19:21;100748.16;;;15.03;46.11
74631;BME280;63138;55.082;38.804;2022-09-09T06:21:47;100747.03;;;15.42;44.66
74631;BME280;63138;55.082;38.804;2022-09-09T06:24:13;100748.22;;;15.99;42.74
74631;BME280;63138;55.082;38.804;2022-09-09T06:26:43;100752.97;;;15.90;42.25
74631;BME280;63138;55.082;38.804;2022-09-09T06:29:16;100746.50;;;16.34;40.50
74631;BME280;63138;55.082;38.804;2022-09-09T06:31:44;100754.28;;;15.94;40.24
74631;BME280;63138;55.082;38.804;2022-09-09T06:34:20;100751.59;;;16.37;39.15
74631;BME280;63138;55.082;38.804;2022-09-09T06:36:49;100755.72;;;16.91;38.82
74631;BME280;63138;55.082;38.804;2022-09-09T06:39:16;100755.03;;;17.11;37.65
74631;BME280;63138;55.082;38.804;2022-09-09T06:41:42;100759.09;;;17.22;37.09
74631;BME280;63138;55.082;38.804;2022-09-09T06:44:18;100767.13;;;17.58;36.22
74631;BME280;63138;55.082;38.804;2022-09-09T06:46:45;100744.53;;;17.98;35.68
74631;BME280;63138;55.082;38.804;2022-09-09T06:49:14;100759.63;;;17.80;34.72
74631;BME280;63138;55.082;38.804;2022-09-09T06:51:40;100757.06;;;17.02;33.97
74631;BME280;63138;55.082;38.804;2022-09-09T06:54:10;100768.28;;;17.07;34.38
74631;BME280;63138;55.082;38.804;2022-09-09T06:56:39;100770.47;;;17.53;34.21
74631;BME280;63138;55.082;38.804;2022-09-09T06:59:11;100777.44;;;17.49;33.80
74631;BME280;63138;55.082;38.804;2022-09-09T07:01:39;100765.06;;;17.67;31.73
74631;BME280;63138;55.082;38.804;2022-09-09T07:04:15;100773.63;;;16.87;32.78
74631;BME280;63138;55.082;38.804;2022-09-09T07:06:44;100770.63;;;15.88;34.72
74631;BME280;63138;55.082;38.804;2022-09-09T07:09:16;100778.38;;;14.86;35.29
74631;BME280;63138;55.082;38.804;2022-09-09T07:11:48;100787.00;;;14.29;37.46
74631;BME280;63138;55.082;38.804;2022-09-09T07:14:17;100786.88;;;13.27;38.65
74631;BME280;63138;55.082;38.804;2022-09-09T07:16:46;100782.31;;;13.11;39.40
74631;BME280;63138;55.082;38.804;2022-09-09T07:19:14;100783.16;;;12.46;41.32
74631;BME280;63138;55.082;38.804;2022-09-09T07:21:41;100779.19;;;12.07;42.87
74631;BME280;63138;55.082;38.804;2022-09-09T07:24:09;100791.28;;;11.70;43.56
74631;BME280;63138;55.082;38.804;2022-09-09T07:26:38;100789.34;;;11.54;43.59
74631;BME280;63138;55.082;38.804;2022-09-09T07:29:04;100782.97;;;11.37;42.81
74631;BME280;63138;55.082;38.804;2022-09-09T07:31:33;100804.09;;;11.43;43.07
74631;BME280;63138;55.082;38.804;2022-09-09T07:34:01;100801.72;;;10.96;43.44
74631;BME280;63138;55.082;38.804;2022-09-09T07:36:30;100804.03;;;10.65;42.50
74631;BME280;63138;55.082;38.804;2022-09-09T07:38:59;100820.06;;;10.58;43.00
74631;BME280;63138;55.082;38.804;2022-09-09T07:41:39;100801.06;;;11.55;41.82
74631;BME280;63138;55.082;38.804;2022-09-09T07:44:09;100798.00;;;12.43;39.69
74631;BME280;63138;55.082;38.804;2022-09-09T07:46:37;100807.88;;;13.10;37.93
74631;BME280;63138;55.082;38.804;2022-09-09T07:49:08;100809.50;;;13.60;38.08
74631;BME280;63138;55.082;38.804;2022-09-09T07:51:36;100809.28;;;14.09;36.89
74631;BME280;63138;55.082;38.804;2022-09-09T07:54:05;100800.97;;;14.34;36.32
74631;BME280;63138;55.082;38.804;2022-09-09T07:56:33;100811.19;;;13.61;37.55
74631;BME280;63138;55.082;38.804;2022-09-09T07:58:59;100813.84;;;13.13;38.81
74631;BME280;63138;55.082;38.804;2022-09-09T08:01:32;100809.25;;;12.65;40.02
74631;BME280;63138;55.082;38.804;2022-09-09T08:04:00;100822.69;;;12.50;40.47
74631;BME280;63138;55.082;38.804;2022-09-09T08:06:29;100814.69;;;12.48;41.05
74631;BME280;63138;55.082;38.804;2022-09-09T08:08:55;100818.44;;;12.55;40.87
74631;BME280;63138;55.082;38.804;2022-09-09T08:11:24;100827.63;;;12.54;41.01
74631;BME280;63138;55.082;38.804;2022-09-09T08:13:51;100808.22;;;12.66;40.82
74631;BME280;63138;55.082;38.804;2022-09-09T08:16:22;100821.19;;;12.04;41.11
74631;BME280;63138;55.082;38.804;2022-09-09T08:18:49;100825.56;;;12.32;41.17
74631;BME280;63138;55.082;38.804;2022-09-09T08:21:18;100816.72;;;13.12;40.62
74631;BME280;63138;55.082;38.804;2022-09-09T08:23:45;100813.34;;;12.93;41.08
74631;BME280;63138;55.082;38.804;2022-09-09T08:26:17;100835.16;;;12.60;41.91
74631;BME280;63138;55.082;38.804;2022-09-09T08:28:54;100828.59;;;12.37;42.24
74631;BME280;63138;55.082;38.804;2022-09-09T08:31:28;100831.66;;;12.26;42.64
74631;BME280;63138;55.082;38.804;2022-09-09T08:33:55;100837.78;;;12.19;43.37
74631;BME280;63138;55.082;38.804;2022-09-09T08:36:23;100823.31;;;12.27;43.07
74631;BME280;63138;55.082;38.804;2022-09-09T08:38:52;100831.59;;;12.09;42.92
74631;BME280;63138;55.082;38.804;2022-09-09T08:50:13;100831.19;;;12.55;41.85
74631;BME280;63138;55.082;38.804;2022-09-09T08:53:01;100831.72;;;12.50;42.31
74631;BME280;63138;55.082;38.804;2022-09-09T08:55:53;100833.78;;;13.14;40.76
74631;BME280;63138;55.082;38.804;2022-09-09T08:58:35;100845.38;;;13.08;41.30
74631;BME280;63138;55.082;38.804;2022-09-09T09:12:27;100836.09;;;12.35;42.69
74631;BME280;63138;55.082;38.804;2022-09-09T09:14:55;100843.22;;;12.19;43.74
74631;BME280;63138;55.082;38.804;2022-09-09T09:17:25;100831.16;;;12.38;43.37
74631;BME280;63138;55.082;38.804;2022-09-09T09:19:52;100826.78;;;13.19;41.71
74631;BME280;63138;55.082;38.804;2022-09-09T09:24:54;100838.88;;;12.76;42.43
74631;BME280;63138;55.082;38.804;2022-09-09T09:27:34;100833.75;;;12.73;41.90
74631;BME280;63138;55.082;38.804;2022-09-09T09:30:25;100838.38;;;12.72;41.39
74631;BME280;63138;55.082;38.804;2022-09-09T09:33:01;100834.28;;;13.42;39.58
74631;BME280;63138;55.082;38.804;2022-09-09T09:35:32;100841.25;;;13.53;38.43
74631;BME280;63138;55.082;38.804;2022-09-09T09:37:58;100839.47;;;13.76;37.99
74631;BME280;63138;55.082;38.804;2022-09-09T09:40:27;100839.81;;;13.73;37.41
74631;BME280;63138;55.082;38.804;2022-09-09T09:45:33;100845.34;;;14.90;36.11
74631;BME280;63138;55.082;38.804;2022-09-09T09:48:06;100826.97;;;14.99;35.71
74631;BME280;63138;55.082;38.804;2022-09-09T09:53:27;100842.44;;;15.07;34.08
74631;BME280;63138;55.082;38.804;2022-09-09T09:55:59;100841.94;;;14.88;34.07
74631;BME280;63138;55.082;38.804;2022-09-09T09:58:27;100837.91;;;14.76;34.16
74631;BME280;63138;55.082;38.804;2022-09-09T10:00:57;100843.22;;;14.78;33.82
74631;BME280;63138;55.082;38.804;2022-09-09T10:03:32;100842.59;;;14.90;34.64
74631;BME280;63138;55.082;38.804;2022-09-09T10:06:03;100837.91;;;14.76;35.98
74631;BME280;63138;55.082;38.804;2022-09-09T10:08:33;100840.00;;;14.74;36.88
74631;BME280;63138;55.082;38.804;2022-09-09T10:16:48;100846.53;;;13.22;38.24
74631;BME280;63138;55.082;38.804;2022-09-09T10:19:36;100853.22;;;13.35;38.90
74631;BME280;63138;55.082;38.804;2022-09-09T10:25:14;100852.78;;;14.19;35.57
74631;BME280;63138;55.082;38.804;2022-09-09T10:30:24;100848.13;;;14.28;37.00
74631;BME280;63138;55.082;38.804;2022-09-09T10:33:07;100845.34;;;13.49;38.89
74631;BME280;63138;55.082;38.804;2022-09-09T10:35:50;100855.25;;;12.84;40.08
74631;BME280;63138;55.082;38.804;2022-09-09T10:38:40;100856.59;;;12.72;39.99
74631;BME280;63138;55.082;38.804;2022-09-09T10:41:33;100858.84;;;13.09;38.87
74631;BME280;63138;55.082;38.804;2022-09-09T10:57:42;100852.84;;;13.47;38.03
74631;BME280;63138;55.082;38.804;2022-09-09T11:00:19;100852.19;;;13.04;38.73
74631;BME280;63138;55.082;38.804;2022-09-09T11:02:51;100846.88;;;12.61;39.09
74631;BME280;63138;55.082;38.804;2022-09-09T11:08:12;100855.03;;;12.53;39.20
74631;BME280;63138;55.082;38.804;2022-09-09T11:10:48;100855.41;;;12.74;38.60
74631;BME280;63138;55.082;38.804;2022-09-09T11:13:30;100859.50;;;13.03;38.06
74631;BME280;63138;55.082;38.804;2022-09-09T11:18:42;100863.59;;;12.99;38.63
74631;BME280;63138;55.082;38.804;2022-09-09T11:21:17;100846.06;;;12.77;39.68
74631;BME280;63138;55.082;38.804;2022-09-09T11:23:53;100861.19;;;12.63;40.76
74631;BME280;63138;55.082;38.804;2022-09-09T11:26:30;100856.50;;;12.31;41.51
74631;BME280;63138;55.082;38.804;2022-09-09T11:29:11;100861.69;;;12.58;41.53
74631;BME280;63138;55.082;38.804;2022-09-09T11:31:52;100860.53;;;12.77;40.53
74631;BME280;63138;55.082;38.804;2022-09-09T11:40:25;100854.59;;;12.82;35.74
74631;BME280;63138;55.082;38.804;2022-09-09T11:43:23;100863.59;;;12.91;37.21
74631;BME280;63138;55.082;38.804;2022-09-09T11:45:54;100852.31;;;12.69;37.58
74631;BME280;63138;55.082;38.804;2022-09-09T11:48:40;100857.63;;;12.71;37.04
74631;BME280;63138;55.082;38.804;2022-09-09T11:51:29;100857.31;;;12.82;37.67
74631;BME280;63138;55.082;38.804;2022-09-09T11:56:28;100847.25;;;13.40;36.38
74631;BME280;63138;55.082;38.804;2022-09-09T11:59:06;100848.44;;;13.37;36.36
74631;BME280;63138;55.082;38.804;2022-09-09T12:01:43;100849.09;;;13.56;36.22
74631;BME280;63138;55.082;38.804;2022-09-09T12:06:46;100841.97;;;12.97;37.47
74631;BME280;63138;55.082;38.804;2022-09-09T12:12:30;100859.00;;;12.91;37.81
74631;BME280;63138;55.082;38.804;2022-09-09T12:17:46;100848.09;;;12.75;38.92
74631;BME280;63138;55.082;38.804;2022-09-09T12:20:18;100840.59;;;13.10;38.54
74631;BME280;63138;55.082;38.804;2022-09-09T12:26:05;100842.97;;;13.21;37.16
74631;BME280;63138;55.082;38.804;2022-09-09T12:31:14;100842.66;;;12.75;37.81
74631;BME280;63138;55.082;38.804;2022-09-09T12:33:44;100847.75;;;12.70;38.32
74631;BME280;63138;55.082;38.804;2022-09-09T12:36:15;100841.25;;;12.54;38.83
74631;BME280;63138;55.082;38.804;2022-09-09T12:38:43;100839.50;;;12.37;39.76
74631;BME280;63138;55.082;38.804;2022-09-09T12:41:26;100846.63;;;12.21;39.80
74631;BME280;63138;55.082;38.804;2022-09-09T12:44:06;100847.38;;;12.48;39.60
74631;BME280;63138;55.082;38.804;2022-09-09T12:46:42;100850.63;;;12.76;38.21
74631;BME280;63138;55.082;38.804;2022-09-09T12:51:53;100834.97;;;13.03;36.91
74631;BME280;63138;55.082;38.804;2022-09-09T12:54:19;100831.03;;;13.14;36.72
74631;BME280;63138;55.082;38.804;2022-09-09T12:56:47;100840.25;;;13.29;36.33
74631;BME280;63138;55.082;38.804;2022-09-09T12:59:38;100840.78;;;13.16;37.06
74631;BME280;63138;55.082;38.804;2022-09-09T13:02:31;100839.25;;;12.89;37.93
74631;BME280;63138;55.082;38.804;2022-09-09T13:05:08;100836.34;;;12.66;39.17
74631;BME280;63138;55.082;38.804;2022-09-09T13:07:38;100848.75;;;12.52;39.66
74631;BME280;63138;55.082;38.804;2022-09-09T13:10:04;100847.50;;;12.38;39.87
74631;BME280;63138;55.082;38.804;2022-09-09T13:12:30;100838.81;;;12.27;40.51
74631;BME280;63138;55.082;38.804;2022-09-09T13:14:56;100849.50;;;12.20;40.82
74631;BME280;63138;55.082;38.804;2022-09-09T13:17:26;100850.00;;;12.15;41.10
74631;BME280;63138;55.082;38.804;2022-09-09T13:19:56;100846.91;;;12.02;41.30
74631;BME280;63138;55.082;38.804;2022-09-09T13:22:42;100843.91;;;11.87;41.22
74631;BME280;63138;55.082;38.804;2022-09-09T13:27:39;100837.34;;;11.98;41.26
74631;BME280;63138;55.082;38.804;2022-09-09T13:30:28;100849.47;;;12.12;41.31
74631;BME280;63138;55.082;38.804;2022-09-09T13:36:09;100836.97;;;12.35;39.94
74631;BME280;63138;55.082;38.804;2022-09-09T13:38:53;100833.06;;;12.46;39.08
74631;BME280;63138;55.082;38.804;2022-09-09T13:41:25;100835.47;;;12.57;38.98
74631;BME280;63138;55.082;38.804;2022-09-09T13:43:51;100833.06;;;12.54;36.51
74631;BME280;63138;55.082;38.804;2022-09-09T13:46:33;100835.47;;;12.66;37.10
74631;BME280;63138;55.082;38.804;2022-09-09T13:49:20;100830.72;;;12.76;37.29
74631;BME280;63138;55.082;38.804;2022-09-09T13:51:49;100829.69;;;12.77;36.87
74631;BME280;63138;55.082;38.804;2022-09-09T13:54:18;100836.50;;;12.81;37.72
74631;BME280;63138;55.082;38.804;2022-09-09T13:56:44;100836.00;;;12.86;37.37
74631;BME280;63138;55.082;38.804;2022-09-09T13:59:15;100821.34;;;12.95;37.09
74631;BME280;63138;55.082;38.804;2022-09-09T14:01:42;100843.69;;;12.98;37.84
74631;BME280;63138;55.082;38.804;2022-09-09T14:04:10;100829.19;;;12.98;37.84
74631;BME280;63138;55.082;38.804;2022-09-09T14:06:37;100830.38;;;12.87;38.70
74631;BME280;63138;55.082;38.804;2022-09-09T14:09:10;100817.09;;;12.84;38.57
74631;BME280;63138;55.082;38.804;2022-09-09T14:11:38;100833.63;;;12.82;38.87
74631;BME280;63138;55.082;38.804;2022-09-09T14:14:06;100825.59;;;12.81;38.83
74631;BME280;63138;55.082;38.804;2022-09-09T14:16:32;100830.72;;;12.84;38.43
74631;BME280;63138;55.082;38.804;2022-09-09T14:18:58;100831.56;;;12.68;39.01
74631;BME280;63138;55.082;38.804;2022-09-09T14:21:29;100848.09;;;12.75;39.02
74631;BME280;63138;55.082;38.804;2022-09-09T14:23:55;100845.00;;;12.61;38.75
74631;BME280;63138;55.082;38.804;2022-09-09T14:26:24;100847.38;;;12.48;39.27
74631;BME280;63138;55.082;38.804;2022-09-09T14:28:50;100839.84;;;12.34;39.26
74631;BME280;63138;55.082;38.804;2022-09-09T14:31:17;100850.22;;;12.38;39.34
74631;BME280;63138;55.082;38.804;2022-09-09T14:33:44;100849.75;;;12.43;39.21
74631;BME280;63138;55.082;38.804;2022-09-09T14:36:10;100854.31;;;12.34;39.42
74631;BME280;63138;55.082;38.804;2022-09-09T14:38:37;100855.78;;;12.20;39.90
74631;BME280;63138;55.082;38.804;2022-09-09T14:41:11;100857.31;;;12.15;39.86
74631;BME280;63138;55.082;38.804;2022-09-09T14:43:40;100854.69;;;11.97;40.77
74631;BME280;63138;55.082;38.804;2022-09-09T14:46:11;100854.78;;;11.87;41.27
74631;BME280;63138;55.082;38.804;2022-09-09T14:48:37;100859.34;;;11.78;42.10
74631;BME280;63138;55.082;38.804;2022-09-09T14:51:10;100853.22;;;11.76;41.71
74631;BME280;63138;55.082;38.804;2022-09-09T14:53:39;100849.44;;;11.69;41.73
74631;BME280;63138;55.082;38.804;2022-09-09T14:56:07;100855.50;;;11.63;42.08
74631;BME280;63138;55.082;38.804;2022-09-09T14:58:34;100858.50;;;11.52;42.31
74631;BME280;63138;55.082;38.804;2022-09-09T15:01:03;100854.94;;;11.51;42.52
74631;BME280;63138;55.082;38.804;2022-09-09T15:03:29;100859.00;;;11.47;42.84
74631;BME280;63138;55.082;38.804;2022-09-09T15:05:55;100864.75;;;11.44;43.11
74631;BME280;63138;55.082;38.804;2022-09-09T15:08:24;100860.81;;;11.38;43.36
74631;BME280;63138;55.082;38.804;2022-09-09T15:10:59;100864.84;;;11.34;44.08
74631;BME280;63138;55.082;38.804;2022-09-09T15:13:25;100864.13;;;11.24;44.21
74631;BME280;63138;55.082;38.804;2022-09-09T15:15:51;100867.84;;;11.23;44.47